Time;durP1;ratioP1;P1;durP2;ratioP2;P2;SDS_P1;SDS_P2;PMS_P1;PMS_P2;Temp;Humidity;BMP_temperature;BMP_pressure;BME280_temperature;BME280_humidity;BME280_pressure;Samples;Min_cycle;Max_cycle;Signal;HPM_P1;HPM_P2
2022/07/23 00:01:06;;;;;;;18.07;11.10;;;16.20;99.90;;;;;;5115511;28;20256;-60
2022/07/23 00:03:33;;;;;;;17.83;11.40;;;16.20;99.90;;;;;;5115579;28;20731;-56
2022/07/23 00:05:59;;;;;;;17.97;11.20;;;16.20;99.90;;;;;;5114767;28;20233;-59
2022/07/23 00:08:26;;;;;;;19.57;11.17;;;16.10;99.90;;;;;;5115122;28;20701;-61
2022/07/23 00:10:53;;;;;;;21.33;11.50;;;16.10;99.90;;;;;;5114923;28;20224;-61
2022/07/23 00:13:19;;;;;;;19.70;10.83;;;16.10;99.90;;;;;;5115325;28;20233;-59
2022/07/23 00:15:46;;;;;;;20.20;11.43;;;16.10;99.90;;;;;;5114981;27;20284;-59
2022/07/23 00:18:14;;;;;;;17.10;11.27;;;16.10;99.90;;;;;;5114525;27;20697;-61
2022/07/23 00:20:40;;;;;;;21.27;11.97;;;16.10;99.90;;;;;;5114265;28;20720;-58
2022/07/23 00:23:07;;;;;;;19.50;11.63;;;16.00;99.90;;;;;;5114487;28;20661;-58
2022/07/23 00:25:34;;;;;;;19.37;11.00;;;16.00;99.90;;;;;;5114670;28;20574;-58
2022/07/23 00:28:02;;;;;;;21.60;11.57;;;16.00;99.90;;;;;;5114316;28;20617;-60
2022/07/23 00:30:29;;;;;;;18.03;11.83;;;16.00;99.90;;;;;;5114877;28;20368;-61
2022/07/23 00:32:58;;;;;;;16.93;11.43;;;15.90;99.90;;;;;;5114907;28;20294;-60
2022/07/23 00:35:28;;;;;;;18.30;11.77;;;15.90;99.90;;;;;;5114466;28;20621;-60
2022/07/23 00:37:55;;;;;;;22.33;12.03;;;15.90;99.90;;;;;;5113933;28;20203;-60
2022/07/23 00:40:22;;;;;;;18.77;11.77;;;16.00;99.90;;;;;;5114697;28;20276;-59
2022/07/23 00:42:49;;;;;;;17.60;11.80;;;16.00;99.90;;;;;;5114429;28;20204;-58
2022/07/23 00:45:16;;;;;;;19.70;11.60;;;15.90;99.90;;;;;;5114734;28;20211;-61
2022/07/23 00:47:42;;;;;;;22.07;12.70;;;15.90;99.90;;;;;;5113952;28;20209;-61
2022/07/23 00:50:10;;;;;;;18.97;12.83;;;15.90;99.90;;;;;;5114441;28;20235;-61
2022/07/23 00:52:39;;;;;;;21.63;13.53;;;15.90;99.90;;;;;;5114036;28;20210;-61
2022/07/23 00:55:08;;;;;;;21.60;12.73;;;15.90;99.90;;;;;;5114333;27;20207;-61
2022/07/23 00:57:35;;;;;;;18.43;12.20;;;15.90;99.90;;;;;;5113811;28;20633;-61
2022/07/23 01:00:02;;;;;;;24.47;13.70;;;15.70;99.90;;;;;;5114110;28;20281;-61
2022/07/23 01:02:29;;;;;;;24.00;14.07;;;15.70;99.90;;;;;;5114054;27;20195;-61
2022/07/23 01:04:56;;;;;;;26.80;14.33;;;15.70;99.90;;;;;;5113979;28;20261;-61
2022/07/23 01:07:23;;;;;;;23.73;14.67;;;15.60;99.90;;;;;;5113674;27;20213;-61
2022/07/23 01:09:52;;;;;;;23.60;14.40;;;15.60;99.90;;;;;;5113811;28;20264;-61
2022/07/23 01:12:19;;;;;;;26.10;15.13;;;15.60;99.90;;;;;;5113935;28;20623;-61
2022/07/23 01:14:45;;;;;;;29.40;13.63;;;15.70;99.90;;;;;;5113638;28;20207;-65
2022/07/23 01:17:12;;;;;;;32.33;16.07;;;15.70;99.90;;;;;;5113512;28;20734;-59
2022/07/23 01:19:39;;;;;;;22.90;15.70;;;15.70;99.90;;;;;;5113038;28;20223;-60
2022/07/23 01:22:05;;;;;;;21.40;14.87;;;15.70;99.90;;;;;;5113675;28;20729;-61
2022/07/23 01:24:33;;;;;;;27.17;15.37;;;15.60;99.90;;;;;;5113689;28;20226;-60
2022/07/23 01:27:00;;;;;;;28.47;15.70;;;15.60;99.90;;;;;;5113373;27;20207;-61
2022/07/23 01:29:27;;;;;;;26.40;15.10;;;15.70;99.90;;;;;;5113385;28;20274;-61
2022/07/23 01:31:53;;;;;;;24.97;15.30;;;15.70;99.90;;;;;;5113599;28;20286;-62
2022/07/23 01:34:20;;;;;;;25.40;15.37;;;15.80;99.90;;;;;;5113302;28;20203;-61
2022/07/23 01:36:47;;;;;;;23.57;14.43;;;15.80;99.90;;;;;;5112976;28;20204;-62
2022/07/23 01:39:13;;;;;;;24.80;14.90;;;15.80;99.90;;;;;;5113390;28;20281;-61
2022/07/23 01:41:41;;;;;;;25.57;15.70;;;15.80;99.90;;;;;;5113301;28;20212;-61
2022/07/23 01:44:08;;;;;;;23.63;15.20;;;15.80;99.90;;;;;;5113306;28;20207;-61
2022/07/23 01:46:35;;;;;;;24.70;15.30;;;15.80;99.90;;;;;;5112638;27;20203;-61
2022/07/23 01:49:01;;;;;;;29.43;16.60;;;15.80;99.90;;;;;;5113306;28;20310;-58
2022/07/23 01:51:28;;;;;;;26.70;15.93;;;15.80;99.90;;;;;;5113107;28;20203;-52
2022/07/23 01:53:55;;;;;;;29.77;16.33;;;15.90;99.90;;;;;;5113250;28;20210;-61
2022/07/23 01:56:22;;;;;;;29.43;16.53;;;15.90;99.90;;;;;;5112488;28;20204;-59
2022/07/23 01:58:50;;;;;;;30.00;18.13;;;15.80;99.90;;;;;;5112789;28;20216;-61
2022/07/23 02:01:16;;;;;;;32.50;16.33;;;15.80;99.90;;;;;;5112936;28;20207;-58
2022/07/23 02:03:43;;;;;;;30.47;17.37;;;15.90;99.90;;;;;;5112861;28;20464;-59
2022/07/23 02:06:10;;;;;;;33.67;17.67;;;15.80;99.90;;;;;;5112836;28;20211;-59
2022/07/23 02:08:37;;;;;;;27.03;17.23;;;15.80;99.90;;;;;;5112764;28;20207;-59
2022/07/23 02:11:03;;;;;;;30.93;17.43;;;15.70;99.90;;;;;;5112897;28;20235;-61
2022/07/23 02:13:30;;;;;;;33.70;18.17;;;15.70;99.90;;;;;;5112618;28;20199;-59
2022/07/23 02:15:58;;;;;;;31.27;17.73;;;15.70;99.90;;;;;;5112458;28;20208;-57
2022/07/23 02:18:25;;;;;;;32.33;17.63;;;15.80;99.90;;;;;;5112830;28;20215;-60
2022/07/23 02:20:52;;;;;;;30.07;17.07;;;15.80;99.90;;;;;;5112914;28;20224;-61
2022/07/23 02:23:18;;;;;;;37.83;17.50;;;15.80;99.90;;;;;;5112693;28;20204;-60
2022/07/23 02:25:45;;;;;;;30.17;16.87;;;15.80;99.90;;;;;;5112691;28;20215;-59
2022/07/23 02:28:12;;;;;;;36.67;18.53;;;15.80;99.90;;;;;;5112131;28;20214;-61
2022/07/23 02:30:39;;;;;;;32.80;17.53;;;15.80;99.90;;;;;;5112323;28;20227;-61
2022/07/23 02:33:07;;;;;;;31.87;17.90;;;15.80;99.90;;;;;;5112744;28;20214;-60
2022/07/23 02:35:33;;;;;;;30.33;16.93;;;15.80;99.90;;;;;;5112744;28;20199;-61
2022/07/23 02:38:00;;;;;;;30.60;16.17;;;15.80;99.90;;;;;;5112003;28;20211;-59
2022/07/23 02:40:27;;;;;;;28.20;16.50;;;15.80;99.90;;;;;;5112215;28;20224;-58
2022/07/23 02:42:53;;;;;;;31.00;17.73;;;15.80;99.90;;;;;;5112278;28;20203;-61
2022/07/23 02:45:20;;;;;;;27.93;17.60;;;15.90;99.90;;;;;;5111921;28;20215;-61
2022/07/23 02:47:47;;;;;;;32.37;17.00;;;15.80;99.90;;;;;;5112128;28;20211;-60
2022/07/23 02:50:15;;;;;;;33.07;18.50;;;15.70;99.90;;;;;;5112428;28;20217;-59
2022/07/23 02:52:41;;;;;;;29.60;17.00;;;15.70;99.90;;;;;;5112247;28;20200;-61
2022/07/23 02:55:09;;;;;;;33.87;17.77;;;15.70;99.90;;;;;;5112339;28;20678;-60
2022/07/23 02:57:35;;;;;;;31.17;17.10;;;15.70;99.90;;;;;;5111796;28;20211;-60
2022/07/23 03:00:02;;;;;;;27.97;16.23;;;15.70;99.90;;;;;;5112286;28;20364;-61
2022/07/23 03:02:29;;;;;;;29.70;16.87;;;15.70;99.90;;;;;;5112157;28;20203;-59
2022/07/23 03:04:55;;;;;;;29.67;17.90;;;15.70;99.90;;;;;;5112567;28;20216;-61
2022/07/23 03:07:23;;;;;;;30.00;16.90;;;15.70;99.90;;;;;;5111887;28;20204;-61
2022/07/23 03:09:50;;;;;;;28.03;16.60;;;15.70;99.90;;;;;;5112203;28;20734;-61
2022/07/23 03:12:17;;;;;;;25.83;17.17;;;15.60;99.90;;;;;;5111763;28;20266;-59
2022/07/23 03:14:44;;;;;;;25.87;15.33;;;15.60;99.90;;;;;;5112418;28;20256;-62
2022/07/23 03:17:11;;;;;;;26.27;16.00;;;15.50;99.90;;;;;;5111893;28;20199;-61
2022/07/23 03:19:38;;;;;;;31.57;16.27;;;15.60;99.90;;;;;;5112086;28;20227;-58
2022/07/23 03:22:05;;;;;;;29.20;16.27;;;15.60;99.90;;;;;;5111905;28;20743;-62
2022/07/23 03:27:14;;;;;;;24.30;15.43;;;15.50;99.90;;;;;;5110674;28;20235;-62
2022/07/23 03:29:40;;;;;;;24.17;14.53;;;15.50;99.90;;;;;;5111813;28;20224;-62
2022/07/23 03:32:07;;;;;;;21.97;14.70;;;15.50;99.90;;;;;;5111936;28;20233;-61
2022/07/23 03:34:33;;;;;;;24.80;14.57;;;15.50;99.90;;;;;;5111836;28;20203;-62
2022/07/23 03:37:00;;;;;;;23.43;14.70;;;15.40;99.90;;;;;;5111384;28;20211;-61
2022/07/23 03:39:27;;;;;;;22.80;15.03;;;15.40;99.90;;;;;;5111356;28;20227;-60
2022/07/23 03:41:55;;;;;;;21.67;14.30;;;15.30;99.90;;;;;;5112142;28;20204;-61
2022/07/23 03:44:22;;;;;;;19.07;13.43;;;15.30;99.90;;;;;;5112130;28;20238;-60
2022/07/23 03:46:48;;;;;;;21.07;13.80;;;15.30;99.90;;;;;;5111232;28;20211;-57
2022/07/23 03:49:15;;;;;;;23.97;14.33;;;15.30;99.90;;;;;;5111383;28;20216;-62
2022/07/23 03:51:42;;;;;;;27.87;15.03;;;15.30;99.90;;;;;;5111329;28;20204;-61
2022/07/23 03:54:08;;;;;;;23.87;15.50;;;15.20;99.90;;;;;;5111960;28;20208;-61
2022/07/23 03:56:35;;;;;;;23.33;14.30;;;15.20;99.90;;;;;;5112493;28;20643;-62
2022/07/23 03:59:03;;;;;;;20.13;13.17;;;15.20;99.90;;;;;;5115311;28;20220;-61
2022/07/23 04:01:30;;;;;;;19.33;13.53;;;15.20;99.90;;;;;;5115181;28;20211;-61
2022/07/23 04:03:56;;;;;;;21.70;14.37;;;15.20;99.90;;;;;;5115277;28;20204;-61
2022/07/23 04:06:23;;;;;;;24.73;14.37;;;15.20;99.90;;;;;;5114715;28;20203;-60
2022/07/23 04:08:50;;;;;;;21.87;14.23;;;15.20;99.90;;;;;;5115058;28;20738;-61
2022/07/23 04:11:17;;;;;;;24.23;15.07;;;15.20;99.90;;;;;;5115199;28;20597;-59
2022/07/23 04:13:43;;;;;;;25.53;14.13;;;15.20;99.90;;;;;;5114733;28;20199;-59
2022/07/23 04:16:12;;;;;;;26.60;16.43;;;15.20;99.90;;;;;;5114694;28;20268;-61
2022/07/23 04:18:38;;;;;;;32.23;17.33;;;15.20;99.90;;;;;;5114811;28;20268;-58
2022/07/23 04:21:05;;;;;;;31.33;17.37;;;15.20;99.90;;;;;;5114789;28;20227;-57
2022/07/23 04:23:32;;;;;;;33.00;17.43;;;15.20;99.90;;;;;;5114913;28;20200;-59
2022/07/23 04:25:58;;;;;;;28.73;17.70;;;15.30;99.90;;;;;;5114554;28;20208;-59
2022/07/23 04:28:25;;;;;;;34.67;18.47;;;15.30;99.90;;;;;;5114695;28;20203;-59
2022/07/23 04:30:52;;;;;;;28.07;16.47;;;15.30;99.90;;;;;;5114746;28;20273;-58
2022/07/23 04:33:20;;;;;;;28.57;17.83;;;15.20;99.90;;;;;;5114599;28;20207;-61
2022/07/23 04:35:46;;;;;;;32.70;18.80;;;15.10;99.90;;;;;;5114705;28;20553;-60
2022/07/23 04:38:13;;;;;;;33.60;19.37;;;15.10;99.90;;;;;;5114467;28;20204;-61
2022/07/23 04:40:40;;;;;;;29.40;18.20;;;15.10;99.90;;;;;;5114495;28;20644;-59
2022/07/23 04:43:06;;;;;;;28.93;18.20;;;15.20;99.90;;;;;;5114463;28;20852;-58
2022/07/23 04:45:33;;;;;;;32.40;19.37;;;15.20;99.90;;;;;;5114300;28;20225;-62
2022/07/23 04:48:01;;;;;;;33.87;20.20;;;15.20;99.90;;;;;;5113870;28;20245;-60
2022/07/23 04:50:28;;;;;;;34.30;20.43;;;15.10;99.90;;;;;;5114284;28;20219;-61
2022/07/23 04:52:55;;;;;;;36.40;19.50;;;15.10;99.90;;;;;;5114231;28;20705;-61
2022/07/23 04:55:22;;;;;;;39.43;20.97;;;15.10;99.90;;;;;;5114297;28;20211;-62
2022/07/23 04:57:48;;;;;;;37.13;21.27;;;15.20;99.90;;;;;;5113926;28;20253;-60
2022/07/23 05:00:16;;;;;;;35.57;20.63;;;15.30;99.90;;;;;;5114019;28;20765;-62
2022/07/23 05:02:42;;;;;;;38.10;21.40;;;15.20;99.90;;;;;;5114161;28;20253;-60
2022/07/23 05:05:09;;;;;;;44.67;21.60;;;15.20;99.90;;;;;;5114261;28;20204;-60
2022/07/23 05:07:37;;;;;;;33.67;20.00;;;15.30;99.90;;;;;;5113253;28;20210;-61
2022/07/23 05:10:04;;;;;;;39.07;20.50;;;15.30;99.90;;;;;;5114043;28;20220;-62
2022/07/23 05:12:32;;;;;;;39.23;20.23;;;15.30;99.90;;;;;;5113803;28;20203;-61
2022/07/23 05:14:59;;;;;;;38.60;22.43;;;15.20;99.90;;;;;;5113860;28;20207;-59
2022/07/23 05:17:26;;;;;;;33.77;21.77;;;15.30;99.90;;;;;;5113438;28;20208;-59
2022/07/23 05:19:52;;;;;;;36.40;21.07;;;15.30;99.90;;;;;;5113528;28;20693;-61
2022/07/23 05:22:19;;;;;;;35.07;22.20;;;15.30;99.90;;;;;;5113681;28;20215;-60
2022/07/23 05:24:47;;;;;;;34.80;21.27;;;15.30;99.90;;;;;;5113769;28;20265;-62
2022/07/23 05:27:13;;;;;;;39.40;21.17;;;15.30;99.90;;;;;;5113364;28;20204;-61
2022/07/23 05:29:40;;;;;;;35.73;22.53;;;15.50;99.90;;;;;;5113286;28;20219;-62
2022/07/23 05:32:07;;;;;;;37.70;20.93;;;15.50;99.90;;;;;;5113541;28;20689;-61
2022/07/23 05:34:33;;;;;;;37.07;21.63;;;15.50;99.90;;;;;;5113459;28;20256;-62
2022/07/23 05:37:00;;;;;;;38.60;22.30;;;15.50;99.90;;;;;;5113078;28;20211;-62
2022/07/23 05:39:27;;;;;;;35.77;21.40;;;15.70;99.90;;;;;;5112874;28;20230;-62
2022/07/23 05:41:55;;;;;;;33.47;21.87;;;15.80;99.90;;;;;;5113324;28;20262;-62
2022/07/23 05:44:22;;;;;;;34.90;20.77;;;15.90;99.90;;;;;;5112914;28;20203;-62
2022/07/23 05:46:48;;;;;;;31.00;21.00;;;15.90;99.90;;;;;;5113084;28;20207;-61
2022/07/23 05:49:15;;;;;;;32.57;22.03;;;15.90;99.90;;;;;;5112947;28;20713;-62
2022/07/23 05:51:42;;;;;;;29.90;19.70;;;16.00;99.90;;;;;;5113307;28;20633;-62
2022/07/23 05:54:08;;;;;;;32.93;20.43;;;16.10;99.90;;;;;;5113068;28;20237;-62
2022/07/23 05:56:35;;;;;;;32.43;19.30;;;16.10;99.90;;;;;;5112467;28;20257;-62
2022/07/23 05:59:03;;;;;;;29.07;20.40;;;16.30;99.90;;;;;;5113079;27;20227;-61
2022/07/23 06:01:30;;;;;;;36.17;21.23;;;16.40;99.90;;;;;;5112931;28;20228;-61
2022/07/23 06:03:56;;;;;;;34.50;22.67;;;16.50;99.90;;;;;;5113134;28;20207;-62
2022/07/23 06:06:23;;;;;;;32.27;21.67;;;16.50;99.90;;;;;;5112541;28;20200;-62
2022/07/23 06:08:50;;;;;;;35.57;21.97;;;16.60;99.90;;;;;;5112822;28;20200;-62
2022/07/23 06:11:16;;;;;;;32.03;21.87;;;16.60;99.90;;;;;;5112458;28;20261;-62
2022/07/23 06:13:43;;;;;;;33.77;22.17;;;16.60;99.90;;;;;;5112869;28;20229;-62
2022/07/23 06:16:11;;;;;;;34.20;22.53;;;16.70;99.90;;;;;;5112388;28;20552;-62
2022/07/23 06:18:38;;;;;;;35.50;23.77;;;16.70;99.90;;;;;;5112222;28;20708;-62
2022/07/23 06:21:04;;;;;;;38.33;23.70;;;16.70;99.90;;;;;;5112449;28;20227;-60
2022/07/23 06:23:31;;;;;;;36.67;23.20;;;16.80;99.90;;;;;;5112566;27;20236;-60
2022/07/23 06:25:58;;;;;;;35.17;23.93;;;16.70;99.90;;;;;;5112201;28;20212;-62
2022/07/23 06:28:24;;;;;;;38.53;23.47;;;16.80;99.90;;;;;;5112223;28;20665;-60
2022/07/23 06:30:51;;;;;;;38.13;23.87;;;16.80;99.90;;;;;;5112574;28;20276;-61
2022/07/23 06:33:19;;;;;;;37.93;23.97;;;16.90;99.90;;;;;;5112415;28;20211;-62
2022/07/23 06:35:45;;;;;;;35.57;22.13;;;16.90;99.90;;;;;;5112239;28;20212;-62
2022/07/23 06:38:12;;;;;;;36.23;22.67;;;16.80;99.90;;;;;;5111867;28;20234;-61
2022/07/23 06:40:39;;;;;;;37.40;23.20;;;16.90;99.90;;;;;;5112244;28;20220;-61
2022/07/23 06:43:06;;;;;;;40.90;25.13;;;16.90;99.90;;;;;;5112300;28;20614;-62
2022/07/23 06:45:32;;;;;;;39.47;24.90;;;17.00;99.90;;;;;;5112272;28;20207;-62
2022/07/23 06:47:59;;;;;;;36.10;24.67;;;17.00;99.90;;;;;;5111824;28;20204;-61
2022/07/23 06:50:27;;;;;;;35.37;24.33;;;17.20;99.90;;;;;;5111949;28;20231;-62
2022/07/23 06:55:53;;;;;;;36.73;23.80;;;17.30;99.90;;;;;;5083757;28;20216;-62
2022/07/23 06:58:20;;;;;;;32.00;22.13;;;17.30;99.90;;;;;;5112189;28;20203;-62
2022/07/23 07:00:47;;;;;;;35.37;22.80;;;17.30;99.90;;;;;;5111875;28;20254;-61
2022/07/23 07:03:14;;;;;;;36.47;23.93;;;17.30;99.90;;;;;;5112132;28;20203;-62
2022/07/23 07:05:42;;;;;;;32.10;22.27;;;17.20;99.90;;;;;;5111832;28;20569;-61
2022/07/23 07:08:08;;;;;;;32.97;21.87;;;17.40;99.90;;;;;;5111861;28;20256;-62
2022/07/23 07:10:35;;;;;;;30.80;20.70;;;17.50;99.90;;;;;;5111849;28;20273;-61
2022/07/23 07:13:01;;;;;;;33.70;20.47;;;17.40;99.90;;;;;;5112273;28;20246;-61
2022/07/23 07:15:28;;;;;;;32.70;21.20;;;17.40;99.90;;;;;;5112026;28;20226;-61
2022/07/23 07:17:55;;;;;;;31.00;20.73;;;17.40;99.90;;;;;;5111308;28;20624;-62
2022/07/23 07:20:21;;;;;;;29.40;20.27;;;17.50;99.90;;;;;;5111679;28;20239;-62
2022/07/23 07:22:49;;;;;;;38.70;20.87;;;17.40;99.90;;;;;;5111973;28;20209;-62
2022/07/23 07:25:16;;;;;;;36.87;21.60;;;17.40;99.90;;;;;;5111930;28;20207;-62
2022/07/23 07:27:43;;;;;;;34.53;23.33;;;17.40;99.90;;;;;;5111468;28;20211;-62
2022/07/23 07:30:12;;;;;;;35.67;21.37;;;17.50;99.90;;;;;;5112074;28;20255;-61
2022/07/23 07:32:39;;;;;;;33.17;21.07;;;17.60;99.90;;;;;;5115470;28;20624;-62
2022/07/23 07:35:06;;;;;;;31.70;22.20;;;17.70;99.90;;;;;;5115855;28;20199;-62
2022/07/23 07:37:33;;;;;;;33.43;22.53;;;17.90;99.90;;;;;;5115343;28;20200;-62
2022/07/23 07:40:02;;;;;;;28.80;20.83;;;18.10;99.90;;;;;;5115706;28;20224;-62
2022/07/23 07:42:28;;;;;;;29.43;20.73;;;18.20;99.90;;;;;;5115449;28;20206;-62
2022/07/23 07:44:55;;;;;;;29.60;20.27;;;18.30;99.90;;;;;;5115544;28;20203;-62
2022/07/23 07:47:22;;;;;;;27.97;18.70;;;18.60;99.90;;;;;;5115489;28;20208;-62
2022/07/23 07:49:48;;;;;;;27.40;18.70;;;18.70;99.90;;;;;;5115758;28;20277;-61
2022/07/23 07:52:15;;;;;;;29.13;20.10;;;18.60;99.90;;;;;;5115762;28;20207;-61
2022/07/23 07:54:42;;;;;;;27.83;20.03;;;18.60;99.90;;;;;;5116304;27;20210;-62
2022/07/23 07:57:10;;;;;;;28.07;19.00;;;18.70;99.90;;;;;;5115983;28;20219;-61
2022/07/23 07:59:37;;;;;;;30.17;18.40;;;18.90;99.90;;;;;;5115416;28;20224;-61
2022/07/23 08:02:03;;;;;;;25.40;17.53;;;19.10;99.90;;;;;;5116346;28;20223;-61
2022/07/23 08:04:30;;;;;;;25.40;18.30;;;19.10;55.80;;;;;;5115985;28;20211;-61
2022/07/23 08:06:57;;;;;;;27.10;18.83;;;18.80;64.00;;;;;;5114782;28;20207;-62
2022/07/23 08:09:23;;;;;;;24.27;19.93;;;18.90;88.80;;;;;;5115282;28;20337;-62
2022/07/23 08:11:51;;;;;;;26.80;19.37;;;19.10;99.60;;;;;;5107659;28;20605;-62
2022/07/23 08:14:19;;;;;;;24.40;17.43;;;19.20;80.80;;;;;;5107203;28;20214;-62
2022/07/23 08:16:46;;;;;;;23.53;17.73;;;19.20;81.60;;;;;;5113898;28;20697;-62
2022/07/23 08:19:12;;;;;;;22.70;17.53;;;19.10;75.00;;;;;;5114466;27;20231;-61
2022/07/23 08:21:39;;;;;;;26.47;18.60;;;19.00;90.20;;;;;;5114346;28;20223;-62
2022/07/23 08:24:06;;;;;;;25.70;18.70;;;19.10;99.90;;;;;;5114106;28;20629;-62
2022/07/23 08:26:33;;;;;;;23.80;18.63;;;19.10;88.10;;;;;;5113803;28;20204;-61
2022/07/23 08:28:59;;;;;;;27.37;19.10;;;19.20;83.00;;;;;;5113832;28;20339;-62
2022/07/23 08:31:27;;;;;;;26.43;19.87;;;19.30;49.00;;;;;;5113964;28;20587;-62
2022/07/23 08:33:54;;;;;;;27.77;19.30;;;19.50;32.70;;;;;;5113872;28;20208;-60
2022/07/23 08:36:21;;;;;;;29.17;17.97;;;19.50;31.40;;;;;;5113402;28;20208;-60
2022/07/23 08:38:48;;;;;;;24.40;19.07;;;19.70;50.10;;;;;;5113470;28;20693;-63
2022/07/23 08:41:15;;;;;;;23.50;17.40;;;19.80;30.00;;;;;;5113721;27;20706;-62
2022/07/23 08:43:43;;;;;;;22.83;18.90;;;19.70;7.10;;;;;;5112688;28;20204;-63
2022/07/23 08:46:10;;;;;;;21.43;17.50;;;19.60;21.20;;;;;;5113666;28;20212;-63
2022/07/23 08:48:38;;;;;;;23.17;17.97;;;19.70;29.30;;;;;;5113711;28;20260;-56
2022/07/23 08:51:06;;;;;;;25.50;19.87;;;19.90;9.70;;;;;;5113734;28;20210;-61
2022/07/23 08:53:35;;;;;;;23.93;19.80;;;20.00;16.20;;;;;;5113627;28;20203;-62
2022/07/23 08:56:03;;;;;;;22.87;19.20;;;20.10;19.30;;;;;;5113064;28;20208;-60
2022/07/23 08:58:31;;;;;;;22.83;18.50;;;19.80;22.00;;;;;;5113691;28;20204;-63
2022/07/23 09:00:58;;;;;;;23.37;18.50;;;19.60;2.40;;;;;;5113345;28;20223;-63
2022/07/23 09:03:27;;;;;;;25.13;19.00;;;19.50;5.10;;;;;;5113435;28;20209;-63
2022/07/23 09:05:56;;;;;;;23.63;18.70;;;19.40;10.70;;;;;;5113125;28;20204;-64
2022/07/23 09:08:24;;;;;;;24.93;20.07;;;19.60;1.00;;;;;;5112920;28;20226;-65
2022/07/23 09:10:53;;;;;;;22.50;20.10;;;19.80;1.00;;;;;;5113494;28;20269;-63
2022/07/23 09:13:25;;;;;;;21.00;18.80;;;20.00;1.00;;;;;;5112936;27;20208;-64
2022/07/23 09:15:55;;;;;;;18.93;16.93;;;20.00;1.00;;;;;;5113337;28;20203;-65
2022/07/23 09:18:30;;;;;;;20.53;17.13;;;19.90;1.00;;;;;;5113372;28;20215;-59
2022/07/23 09:21:11;;;;;;;21.17;17.77;;;19.80;1.00;;;;;;5112688;28;20509;-60
2022/07/23 09:23:40;;;;;;;18.83;16.50;;;19.90;99.90;;;;;;5112805;28;20666;-63
2022/07/23 09:26:19;;;;;;;20.47;18.17;;;19.90;1.00;;;;;;5112691;28;20237;-64
2022/07/23 09:28:54;;;;;;;23.93;19.43;;;20.10;37.80;;;;;;5112767;28;20207;-65
2022/07/23 09:31:22;;;;;;;17.67;15.63;;;20.10;1.00;;;;;;5112790;28;20206;-65
2022/07/23 09:33:48;;;;;;;16.40;14.60;;;20.10;99.90;;;;;;5112972;28;20256;-65
2022/07/23 09:36:27;;;;;;;18.13;16.10;;;20.20;1.00;;;;;;5112592;28;20260;-65
2022/07/23 09:38:54;;;;;;;16.57;13.47;;;20.30;99.90;;;;;;5112790;28;20207;-65
2022/07/23 09:41:20;;;;;;;15.07;12.87;;;20.30;99.90;;;;;;5112650;28;20224;-64
2022/07/23 09:43:47;;;;;;;15.67;13.47;;;20.30;1.00;;;;;;5112470;28;20219;-65
2022/07/23 09:46:22;;;;;;;13.73;12.20;;;20.40;99.90;;;;;;5112490;28;20203;-65
2022/07/23 09:48:49;;;;;;;13.50;11.73;;;20.50;99.90;;;;;;5112668;28;20217;-64
2022/07/23 09:51:18;;;;;;;12.90;10.33;;;20.30;10.80;;;;;;5112515;28;20276;-65
2022/07/23 09:53:45;;;;;;;12.57;11.27;;;20.30;99.90;;;;;;5112342;28;20200;-65
2022/07/23 09:56:14;;;;;;;13.33;10.53;;;20.10;71.00;;;;;;5112052;27;20219;-63
2022/07/23 09:58:50;;;;;;;11.97;10.33;;;19.90;59.10;;;;;;5112213;28;20252;-62
2022/07/23 10:01:17;;;;;;;12.60;10.33;;;20.00;1.00;;;;;;5112614;27;20223;-62
2022/07/23 10:03:44;;;;;;;12.57;9.63;;;20.10;1.00;;;;;;5111967;28;20204;-63
2022/07/23 10:06:12;;;;;;;16.30;10.80;;;20.30;1.00;;;;;;5112073;28;20200;-63
2022/07/23 10:08:43;;;;;;;14.20;9.80;;;20.30;1.00;;;;;;5111667;28;20207;-62
2022/07/23 10:11:11;;;;;;;12.27;10.23;;;20.30;1.00;;;;;;5112305;28;20199;-62
2022/07/23 10:16:25;;;;;;;14.70;8.60;;;20.80;99.90;;;;;;5106129;28;20203;-66
2022/07/23 10:18:53;;;;;;;9.23;6.80;;;20.90;1.00;;;;;;5112101;28;20221;-66
2022/07/23 10:21:40;;;;;;;10.10;6.90;;;21.10;10.90;;;;;;5111541;28;20228;-64
2022/07/23 10:24:19;;;;;;;7.30;6.07;;;21.20;1.00;;;;;;5111592;28;20210;-65
2022/07/23 10:26:55;;;;;;;15.63;9.37;;;21.20;1.00;;;;;;5111387;28;20296;-62
2022/07/23 10:29:37;;;;;;;8.70;6.23;;;21.20;1.00;;;;;;5111867;28;20273;-63
2022/07/23 10:32:15;;;;;;;12.20;6.87;;;21.30;1.00;;;;;;5111949;28;20622;-61
2022/07/23 10:34:51;;;;;;;10.80;6.60;;;21.40;1.00;;;;;;5111729;28;20211;-62
2022/07/23 10:37:24;;;;;;;7.63;6.80;;;21.50;1.00;;;;;;5111177;28;20692;-63
2022/07/23 10:40:10;;;;;;;10.20;6.80;;;21.20;99.90;;;;;;5111383;28;20416;-63
2022/07/23 10:42:38;;;;;;;9.13;6.63;;;21.00;99.90;;;;;;5111640;28;20588;-63
2022/07/23 10:45:23;;;;;;;10.37;6.80;;;21.00;99.90;;;;;;5111565;28;20294;-62
2022/07/23 10:47:51;;;;;;;6.97;5.87;;;21.00;99.90;;;;;;5111298;28;20670;-63
2022/07/23 10:50:23;;;;;;;7.93;5.47;;;21.10;1.00;;;;;;5111352;28;20610;-65
2022/07/23 10:53:09;;;;;;;7.93;5.87;;;21.30;99.90;;;;;;5111428;28;20203;-64
2022/07/23 10:55:49;;;;;;;8.00;5.13;;;21.40;1.00;;;;;;5111541;28;20294;-66
2022/07/23 10:58:20;;;;;;;9.07;5.30;;;21.60;1.00;;;;;;5111354;28;20294;-62
2022/07/23 11:00:47;;;;;;;6.37;4.17;;;21.80;99.90;;;;;;5111192;28;20276;-66
2022/07/23 11:03:31;;;;;;;5.63;4.43;;;21.80;99.90;;;;;;5111497;28;20230;-67
2022/07/23 11:05:59;;;;;;;5.53;3.93;;;22.10;1.00;;;;;;5113266;28;20547;-65
2022/07/23 11:08:25;;;;;;;7.63;4.33;;;22.10;99.90;;;;;;5115898;28;20214;-66
2022/07/23 11:10:56;;;;;;;6.77;4.17;;;22.10;99.90;;;;;;5115540;28;20234;-65
2022/07/23 11:13:56;;;;;;;6.40;3.70;;;22.00;99.90;;;;;;5115144;28;20208;-67
2022/07/23 11:16:25;;;;;;;6.70;3.50;;;21.70;99.90;;;;;;5051986;28;20205;-67
2022/07/23 11:19:08;;;;;;;4.73;3.47;;;21.70;99.90;;;;;;5052106;28;20213;-65
2022/07/23 11:21:51;;;;;;;6.30;3.50;;;21.70;99.90;;;;;;5087927;28;20223;-65
2022/07/23 11:24:19;;;;;;;4.50;3.57;;;22.00;99.90;;;;;;5114793;28;20693;-65
2022/07/23 11:26:56;;;;;;;4.37;3.67;;;22.10;99.90;;;;;;5115200;28;20617;-66
2022/07/23 11:29:51;;;;;;;5.13;3.67;;;22.20;99.90;;;;;;5115886;28;20223;-62
2022/07/23 11:32:48;;;;;;;5.60;3.97;;;22.20;99.90;;;;;;5078779;28;20604;-62
2022/07/23 11:35:22;;;;;;;5.50;3.67;;;22.00;99.90;;;;;;5114718;28;20689;-62
2022/07/23 11:37:53;;;;;;;6.63;3.53;;;22.10;99.90;;;;;;5114808;27;20619;-62
2022/07/23 11:40:21;;;;;;;7.23;3.60;;;22.00;99.90;;;;;;5114643;28;20252;-61
2022/07/23 11:42:56;;;;;;;4.73;2.90;;;22.00;99.90;;;;;;5114921;28;20635;-61
2022/07/23 11:45:23;;;;;;;4.87;3.20;;;22.10;99.90;;;;;;5115021;28;20693;-60
2022/07/23 11:47:50;;;;;;;6.97;3.07;;;22.10;99.90;;;;;;5114160;28;20729;-61
2022/07/23 11:50:17;;;;;;;4.67;3.17;;;22.10;99.90;;;;;;5115443;28;20651;-62
2022/07/23 11:52:43;;;;;;;4.83;2.97;;;22.10;99.90;;;;;;5115046;28;20214;-61
2022/07/23 11:55:12;;;;;;;4.47;3.10;;;22.50;99.90;;;;;;5115201;28;20200;-62
2022/07/23 11:57:41;;;;;;;17.07;9.97;;;22.50;99.90;;;;;;5114769;28;20206;-62
2022/07/23 12:00:12;;;;;;;3.30;2.97;;;22.60;99.90;;;;;;5115095;28;20786;-61
2022/07/23 12:02:39;;;;;;;4.00;3.07;;;22.80;99.90;;;;;;5115430;28;20246;-61
2022/07/23 12:05:09;;;;;;;5.40;2.50;;;22.70;99.90;;;;;;5115002;27;20236;-61
2022/07/23 12:07:37;;;;;;;5.03;2.60;;;22.80;99.90;;;;;;5115007;28;20295;-60
2022/07/23 12:10:10;;;;;;;5.70;3.00;;;22.90;99.90;;;;;;5115156;28;20269;-61
2022/07/23 12:12:38;;;;;;;4.37;2.80;;;22.80;99.90;;;;;;5115656;28;20238;-61
2022/07/23 12:15:06;;;;;;;4.20;2.80;;;22.80;99.90;;;;;;5114975;28;20204;-62
2022/07/23 12:17:36;;;;;;;4.47;3.10;;;22.70;99.90;;;;;;5113542;27;20237;-61
2022/07/23 12:20:05;;;;;;;3.60;2.80;;;22.80;99.90;;;;;;5114730;28;20641;-62
2022/07/23 12:22:37;;;;;;;5.70;2.90;;;22.70;99.90;;;;;;5114790;28;20266;-61
2022/07/23 12:25:06;;;;;;;4.83;3.10;;;22.50;99.90;;;;;;5114937;28;20302;-61
2022/07/23 12:27:33;;;;;;;3.87;2.90;;;22.60;99.90;;;;;;5114408;28;20699;-61
2022/07/23 12:30:15;;;;;;;4.50;2.77;;;22.40;99.90;;;;;;5114734;28;20223;-62
2022/07/23 12:32:46;;;;;;;2.90;2.27;;;22.60;99.90;;;;;;5114565;28;20796;-61
2022/07/23 12:35:14;;;;;;;3.27;2.40;;;22.90;99.90;;;;;;5114897;28;20203;-61
2022/07/23 12:37:42;;;;;;;3.83;2.10;;;23.20;99.90;;;;;;5114109;28;20749;-62
2022/07/23 12:40:24;;;;;;;4.40;2.50;;;23.30;99.90;;;;;;5114624;28;20314;-61
2022/07/23 12:42:53;;;;;;;6.17;3.03;;;23.30;99.90;;;;;;5114208;28;20219;-62
2022/07/23 12:45:20;;;;;;;3.83;2.53;;;23.50;99.90;;;;;;5114990;28;20212;-62